Time;durP1;ratioP1;P1;durP2;ratioP2;P2;SDS_P1;SDS_P2;PMS_P1;PMS_P2;Temp;Humidity;BMP_temperature;BMP_pressure;BME280_temperature;BME280_humidity;BME280_pressure;Samples;Min_cycle;Max_cycle;Signal;HPM_P1;HPM_P2
2022/12/01 00:02:14;;;;;;;6.10;4.95;;;;;;;;;;5071326;28;20086;-67
2022/12/01 00:04:39;;;;;;;8.75;5.28;;;;;;;;;;5071781;28;20025;-67
2022/12/01 00:07:05;;;;;;;7.20;5.30;;;;;;;;;;5072034;28;20074;-68
2022/12/01 00:12:14;;;;;;;7.85;5.30;;;;;;;;;;5072328;28;20093;-68
2022/12/01 00:14:40;;;;;;;7.85;5.55;;;;;;;;;;5072153;28;20036;-68
2022/12/01 00:17:05;;;;;;;6.70;5.50;;;;;;;;;;5072003;28;20031;-68
2022/12/01 00:19:31;;;;;;;6.97;5.35;;;;;;;;;;5072003;28;20373;-68
2022/12/01 00:21:56;;;;;;;6.10;5.18;;;;;;;;;;5074961;28;20028;-67
2022/12/01 00:24:23;;;;;;;7.22;4.90;;;;;;;;;;5075727;28;20024;-67
2022/12/01 00:26:49;;;;;;;8.23;5.68;;;;;;;;;;5075713;28;20539;-67
2022/12/01 00:29:14;;;;;;;6.30;5.32;;;;;;;;;;5075713;28;20059;-68
2022/12/01 00:31:40;;;;;;;6.13;4.78;;;;;;;;;;5075857;28;20492;-67
2022/12/01 00:34:06;;;;;;;7.40;5.32;;;;;;;;;;5075786;28;20487;-67
2022/12/01 00:36:32;;;;;;;6.78;5.43;;;;;;;;;;5075768;28;20024;-66
2022/12/01 00:38:57;;;;;;;7.25;5.22;;;;;;;;;;5075461;28;20430;-67
2022/12/01 00:41:24;;;;;;;6.72;5.10;;;;;;;;;;5075441;28;20420;-68
2022/12/01 00:43:50;;;;;;;6.07;5.00;;;;;;;;;;5075441;28;20032;-67
2022/12/01 00:46:16;;;;;;;7.65;5.03;;;;;;;;;;5075364;28;20025;-67
2022/12/01 00:48:41;;;;;;;5.63;4.78;;;;;;;;;;5075346;28;20024;-68
2022/12/01 00:51:07;;;;;;;7.63;5.15;;;;;;;;;;5075240;28;20051;-67
2022/12/01 00:53:32;;;;;;;6.28;5.40;;;;;;;;;;5075242;28;20074;-68
2022/12/01 00:55:58;;;;;;;7.72;5.40;;;;;;;;;;5075264;28;20020;-67
2022/12/01 00:58:24;;;;;;;7.03;5.28;;;;;;;;;;5075482;28;20028;-67
2022/12/01 01:01:00;;;;;;;6.50;5.20;;;;;;;;;;5075195;28;20024;-67
2022/12/01 01:03:26;;;;;;;6.25;5.35;;;;;;;;;;5075099;28;20082;-67
2022/12/01 01:05:52;;;;;;;6.28;4.93;;;;;;;;;;5075336;28;20029;-67
2022/12/01 01:08:18;;;;;;;6.78;5.25;;;;;;;;;;5075228;28;20093;-67
2022/12/01 01:10:46;;;;;;;7.35;5.40;;;;;;;;;;5075029;28;20028;-67
2022/12/01 01:13:12;;;;;;;7.82;5.47;;;;;;;;;;5074850;28;20044;-67
2022/12/01 01:15:39;;;;;;;6.38;5.38;;;;;;;;;;5075261;28;20459;-67
2022/12/01 01:18:05;;;;;;;7.13;5.80;;;;;;;;;;5074628;28;20046;-66
2022/12/01 01:20:32;;;;;;;6.22;5.15;;;;;;;;;;5074877;28;20052;-67
2022/12/01 01:22:57;;;;;;;6.10;5.15;;;;;;;;;;5074767;28;20032;-68
2022/12/01 01:25:23;;;;;;;6.32;5.00;;;;;;;;;;5074799;28;20029;-67
2022/12/01 01:27:49;;;;;;;7.32;5.50;;;;;;;;;;5074643;28;20372;-67
2022/12/01 01:30:15;;;;;;;6.10;5.25;;;;;;;;;;5074878;28;20464;-67
2022/12/01 01:32:41;;;;;;;5.75;5.00;;;;;;;;;;5073481;28;20476;-67
2022/12/01 01:35:07;;;;;;;7.38;5.10;;;;;;;;;;5074475;28;20067;-66
2022/12/01 01:37:32;;;;;;;6.07;4.95;;;;;;;;;;5074412;28;20047;-66
2022/12/01 01:39:58;;;;;;;5.65;4.95;;;;;;;;;;5074477;28;20033;-67
2022/12/01 01:42:23;;;;;;;6.72;5.05;;;;;;;;;;5074348;28;20052;-67
2022/12/01 01:44:55;;;;;;;6.93;5.40;;;;;;;;;;5074326;28;20021;-67
2022/12/01 01:47:31;;;;;;;6.15;4.90;;;;;;;;;;5056294;28;20031;-66
2022/12/01 01:50:04;;;;;;;6.20;5.40;;;;;;;;;;5074262;28;20524;-67
2022/12/01 01:52:31;;;;;;;7.55;5.50;;;;;;;;;;5074193;28;20086;-67
2022/12/01 01:54:57;;;;;;;7.85;5.18;;;;;;;;;;5074048;28;20028;-68
2022/12/01 01:57:27;;;;;;;6.55;5.20;;;;;;;;;;5074018;28;20033;-67
2022/12/01 01:59:58;;;;;;;6.20;4.90;;;;;;;;;;5074050;28;20028;-67
2022/12/01 02:02:24;;;;;;;6.90;4.97;;;;;;;;;;5073930;28;20063;-67
2022/12/01 02:04:54;;;;;;;6.72;4.97;;;;;;;;;;5073904;28;20100;-67
2022/12/01 02:07:20;;;;;;;6.95;5.55;;;;;;;;;;5073879;28;20024;-67
2022/12/01 02:09:45;;;;;;;6.38;4.78;;;;;;;;;;5073790;28;20495;-68
2022/12/01 02:12:38;;;;;;;5.97;4.88;;;;;;;;;;5055715;28;20166;-68
2022/12/01 02:15:22;;;;;;;5.93;4.85;;;;;;;;;;5073873;28;20097;-67
2022/12/01 02:18:12;;;;;;;6.60;5.00;;;;;;;;;;5073553;28;20040;-67
2022/12/01 02:21:14;;;;;;;7.80;4.73;;;;;;;;;;5073942;28;20051;-67
2022/12/01 02:24:18;;;;;;;6.20;5.40;;;;;;;;;;5073784;28;20040;-67
2022/12/01 02:26:48;;;;;;;6.88;5.25;;;;;;;;;;5073575;28;20500;-68
2022/12/01 02:29:35;;;;;;;6.47;5.40;;;;;;;;;;5073438;28;20476;-68
2022/12/01 02:32:00;;;;;;;6.97;4.95;;;;;;;;;;5073439;28;20146;-67
2022/12/01 02:34:30;;;;;;;5.80;4.65;;;;;;;;;;5073267;28;20111;-67
2022/12/01 02:37:13;;;;;;;5.95;4.80;;;;;;;;;;5073289;28;20508;-68
2022/12/01 02:40:11;;;;;;;6.97;5.47;;;;;;;;;;5073334;28;20041;-67
2022/12/01 02:42:58;;;;;;;5.90;4.88;;;;;;;;;;5072614;28;20032;-68
2022/12/01 02:45:44;;;;;;;6.18;4.78;;;;;;;;;;5072936;28;20035;-67
2022/12/01 02:48:16;;;;;;;5.88;5.00;;;;;;;;;;5073111;28;20383;-67
2022/12/01 02:50:44;;;;;;;6.22;5.07;;;;;;;;;;5073122;28;20511;-67
2022/12/01 02:53:14;;;;;;;6.60;4.97;;;;;;;;;;5073243;28;20037;-68
2022/12/01 02:55:52;;;;;;;6.93;5.00;;;;;;;;;;5072983;28;20480;-68
2022/12/01 02:58:18;;;;;;;5.95;4.93;;;;;;;;;;5072949;28;20123;-68
2022/12/01 03:01:10;;;;;;;7.47;5.10;;;;;;;;;;5072837;28;20020;-68
2022/12/01 03:03:47;;;;;;;5.90;4.90;;;;;;;;;;5072857;28;20472;-68
2022/12/01 03:06:36;;;;;;;6.22;4.97;;;;;;;;;;5072781;28;20064;-68
2022/12/01 03:09:13;;;;;;;7.88;5.22;;;;;;;;;;5072813;28;20031;-67
2022/12/01 03:11:53;;;;;;;8.18;5.78;;;;;;;;;;5072754;28;20024;-68
2022/12/01 03:14:27;;;;;;;6.35;5.35;;;;;;;;;;5072689;28;20103;-68
2022/12/01 03:16:53;;;;;;;6.55;5.00;;;;;;;;;;5072571;28;20127;-67
2022/12/01 03:19:31;;;;;;;6.30;4.82;;;;;;;;;;5072563;28;20032;-68
2022/12/01 03:22:23;;;;;;;6.00;4.85;;;;;;;;;;5072910;28;20521;-67
2022/12/01 03:24:52;;;;;;;6.35;5.28;;;;;;;;;;5054571;28;20032;-68
2022/12/01 03:27:25;;;;;;;6.10;4.88;;;;;;;;;;5072530;28;20048;-68
2022/12/01 03:29:54;;;;;;;5.90;5.03;;;;;;;;;;5072549;28;20028;-68
2022/12/01 03:32:31;;;;;;;7.20;5.47;;;;;;;;;;5072332;28;20027;-68
2022/12/01 03:35:09;;;;;;;6.30;4.97;;;;;;;;;;5037758;28;20285;-68
2022/12/01 03:37:43;;;;;;;6.93;5.68;;;;;;;;;;5072455;28;20025;-68
2022/12/01 03:40:13;;;;;;;6.68;4.93;;;;;;;;;;5072475;28;20020;-68
2022/12/01 03:42:51;;;;;;;6.30;4.82;;;;;;;;;;5072434;28;20082;-68
2022/12/01 03:45:23;;;;;;;6.03;5.15;;;;;;;;;;5054420;28;20028;-69
2022/12/01 03:47:50;;;;;;;5.55;4.68;;;;;;;;;;5072341;28;20063;-68
2022/12/01 03:50:17;;;;;;;6.70;4.93;;;;;;;;;;5072350;28;20079;-68
2022/12/01 03:53:00;;;;;;;6.10;4.95;;;;;;;;;;5072242;28;20082;-68
2022/12/01 03:55:28;;;;;;;6.78;5.00;;;;;;;;;;5072886;28;20385;-68
2022/12/01 03:58:15;;;;;;;5.82;4.95;;;;;;;;;;5076400;28;20108;-68
2022/12/01 04:00:42;;;;;;;6.07;5.43;;;;;;;;;;5076428;28;20020;-68
2022/12/01 04:03:16;;;;;;;6.30;5.15;;;;;;;;;;5076503;28;20021;-68
2022/12/01 04:05:42;;;;;;;7.38;5.40;;;;;;;;;;5058261;28;20097;-68
2022/12/01 04:08:07;;;;;;;6.93;5.28;;;;;;;;;;5076237;28;20476;-68
2022/12/01 04:10:33;;;;;;;6.47;4.95;;;;;;;;;;5076143;28;20031;-68
2022/12/01 04:12:59;;;;;;;7.00;5.15;;;;;;;;;;5076071;28;20025;-67
2022/12/01 04:15:24;;;;;;;6.07;4.90;;;;;;;;;;5075985;28;20033;-68
2022/12/01 04:17:50;;;;;;;6.10;5.10;;;;;;;;;;5075829;28;20071;-68
2022/12/01 04:20:16;;;;;;;5.80;4.82;;;;;;;;;;5076030;28;20500;-68
2022/12/01 04:22:42;;;;;;;7.10;4.88;;;;;;;;;;5075905;28;20430;-69
2022/12/01 04:25:08;;;;;;;6.00;4.97;;;;;;;;;;5075846;28;20029;-68
2022/12/01 04:27:35;;;;;;;7.57;5.13;;;;;;;;;;5076051;28;20020;-69
2022/12/01 04:30:00;;;;;;;6.35;4.95;;;;;;;;;;5075773;28;20029;-68
2022/12/01 04:32:26;;;;;;;7.25;5.38;;;;;;;;;;5075650;28;20028;-68
2022/12/01 04:34:51;;;;;;;6.53;5.20;;;;;;;;;;5075842;28;20171;-68
2022/12/01 04:37:17;;;;;;;6.30;5.15;;;;;;;;;;5075614;28;20085;-69
2022/12/01 04:39:43;;;;;;;5.78;5.05;;;;;;;;;;5075530;28;20100;-69
2022/12/01 04:42:09;;;;;;;6.20;4.70;;;;;;;;;;5075468;28;20144;-69
2022/12/01 04:44:35;;;;;;;6.15;5.07;;;;;;;;;;5075541;28;20016;-69
2022/12/01 04:47:01;;;;;;;6.15;5.00;;;;;;;;;;5075648;28;20028;-68
2022/12/01 04:49:27;;;;;;;6.25;5.10;;;;;;;;;;5075619;28;20031;-67
2022/12/01 04:51:52;;;;;;;5.65;4.88;;;;;;;;;;5075278;28;20123;-67
2022/12/01 04:54:18;;;;;;;7.13;5.05;;;;;;;;;;5075107;28;20456;-68
2022/12/01 04:56:44;;;;;;;6.80;4.85;;;;;;;;;;5057392;28;20029;-67
2022/12/01 04:59:09;;;;;;;6.10;5.10;;;;;;;;;;5075177;28;20055;-67
2022/12/01 05:01:35;;;;;;;5.38;4.57;;;;;;;;;;5075150;28;20108;-67
2022/12/01 05:04:01;;;;;;;6.38;5.03;;;;;;;;;;5075153;28;20107;-68
2022/12/01 05:06:28;;;;;;;7.53;5.20;;;;;;;;;;5074906;28;20054;-67
2022/12/01 05:08:56;;;;;;;6.25;5.13;;;;;;;;;;5075012;28;20490;-68
2022/12/01 05:11:23;;;;;;;6.07;5.00;;;;;;;;;;5075243;28;20561;-67
2022/12/01 05:13:49;;;;;;;6.38;5.38;;;;;;;;;;5075089;28;20078;-68
2022/12/01 05:16:18;;;;;;;6.60;4.90;;;;;;;;;;5074855;28;20532;-68
2022/12/01 05:18:50;;;;;;;6.72;4.85;;;;;;;;;;5074671;28;20052;-67
2022/12/01 05:21:16;;;;;;;5.60;4.95;;;;;;;;;;5056851;28;20028;-68
2022/12/01 05:23:44;;;;;;;6.63;4.82;;;;;;;;;;5074782;28;20028;-67
2022/12/01 05:26:10;;;;;;;6.00;4.93;;;;;;;;;;5074763;28;20115;-68
2022/12/01 05:28:36;;;;;;;6.20;4.88;;;;;;;;;;5074693;28;20122;-67
2022/12/01 05:31:02;;;;;;;8.02;5.22;;;;;;;;;;5074865;28;20532;-68
2022/12/01 05:33:28;;;;;;;6.07;4.93;;;;;;;;;;5074510;28;20016;-67
2022/12/01 05:35:55;;;;;;;5.93;5.30;;;;;;;;;;5074444;28;20032;-68
2022/12/01 05:38:20;;;;;;;5.72;4.88;;;;;;;;;;5074538;28;20028;-67
2022/12/01 05:40:51;;;;;;;7.45;5.18;;;;;;;;;;5074445;28;20219;-68
2022/12/01 05:43:17;;;;;;;7.05;4.93;;;;;;;;;;5074294;28;20060;-68
2022/12/01 05:45:42;;;;;;;6.53;5.15;;;;;;;;;;5056563;28;20043;-67
2022/12/01 05:48:08;;;;;;;6.43;5.15;;;;;;;;;;5074226;28;20024;-67
2022/12/01 05:50:37;;;;;;;6.10;4.57;;;;;;;;;;5074137;28;20028;-67
2022/12/01 05:53:03;;;;;;;5.65;4.75;;;;;;;;;;5074199;28;20070;-68
2022/12/01 05:55:28;;;;;;;6.00;5.03;;;;;;;;;;5074024;28;20037;-68
2022/12/01 05:57:54;;;;;;;6.63;4.93;;;;;;;;;;5073805;28;20028;-69
2022/12/01 06:00:20;;;;;;;5.53;4.93;;;;;;;;;;5073960;28;20017;-68
2022/12/01 06:02:45;;;;;;;6.13;4.93;;;;;;;;;;5073988;28;20062;-68
2022/12/01 06:05:11;;;;;;;6.28;4.97;;;;;;;;;;5073911;28;20025;-68
2022/12/01 06:07:38;;;;;;;6.50;4.90;;;;;;;;;;5073829;28;20036;-67
2022/12/01 06:10:05;;;;;;;7.18;5.20;;;;;;;;;;5074060;28;20028;-68
2022/12/01 06:12:30;;;;;;;5.70;4.78;;;;;;;;;;5055775;28;20025;-68
2022/12/01 06:14:56;;;;;;;7.22;5.30;;;;;;;;;;5073599;28;20358;-67
2022/12/01 06:17:22;;;;;;;6.80;5.05;;;;;;;;;;5073397;28;20611;-67
2022/12/01 06:19:47;;;;;;;6.35;4.97;;;;;;;;;;5073296;28;20411;-66
2022/12/01 06:22:13;;;;;;;7.18;5.30;;;;;;;;;;5073548;28;20491;-67
2022/12/01 06:24:38;;;;;;;7.72;5.10;;;;;;;;;;5055591;28;20499;-67
2022/12/01 06:27:04;;;;;;;6.00;4.72;;;;;;;;;;5073400;28;20020;-66
2022/12/01 06:29:30;;;;;;;5.78;4.60;;;;;;;;;;5073376;28;20020;-67
2022/12/01 06:31:55;;;;;;;6.35;5.20;;;;;;;;;;5055050;28;20025;-66
2022/12/01 06:34:21;;;;;;;5.40;4.68;;;;;;;;;;5072498;28;20136;-67
2022/12/01 06:36:47;;;;;;;5.43;4.63;;;;;;;;;;5071967;28;20053;-68
2022/12/01 06:39:15;;;;;;;6.55;4.90;;;;;;;;;;5072517;28;20565;-68
2022/12/01 06:41:41;;;;;;;6.70;5.10;;;;;;;;;;5072852;28;20115;-68
2022/12/01 06:44:07;;;;;;;7.45;5.40;;;;;;;;;;5072884;28;20055;-68
2022/12/01 06:46:33;;;;;;;7.43;5.07;;;;;;;;;;5072966;28;20059;-68
2022/12/01 06:48:58;;;;;;;5.63;4.80;;;;;;;;;;5072916;28;20032;-68
2022/12/01 06:51:24;;;;;;;6.93;5.07;;;;;;;;;;5072999;28;20103;-68
2022/12/01 06:53:54;;;;;;;5.97;4.95;;;;;;;;;;5038313;28;20119;-68
2022/12/01 06:56:20;;;;;;;6.45;5.10;;;;;;;;;;5073164;28;20021;-68
2022/12/01 06:58:47;;;;;;;7.13;4.70;;;;;;;;;;5073129;28;20028;-68
2022/12/01 07:01:13;;;;;;;6.43;4.80;;;;;;;;;;5072842;28;20028;-67
2022/12/01 07:03:38;;;;;;;5.97;4.88;;;;;;;;;;5072876;28;20024;-68
2022/12/01 07:06:05;;;;;;;8.63;5.15;;;;;;;;;;5072693;28;20025;-68
2022/12/01 07:08:31;;;;;;;6.47;4.95;;;;;;;;;;5072768;28;20044;-68
2022/12/01 07:11:01;;;;;;;6.53;5.18;;;;;;;;;;5072733;28;20025;-68
2022/12/01 07:13:27;;;;;;;7.05;5.20;;;;;;;;;;5072547;28;20154;-66
2022/12/01 07:15:52;;;;;;;7.00;5.18;;;;;;;;;;5072626;28;20491;-67
2022/12/01 07:18:18;;;;;;;7.82;5.13;;;;;;;;;;5072470;28;20048;-68
2022/12/01 07:20:43;;;;;;;6.88;5.10;;;;;;;;;;5072531;28;20066;-67
2022/12/01 07:23:09;;;;;;;6.40;5.05;;;;;;;;;;5072602;28;20485;-68
2022/12/01 07:25:34;;;;;;;6.55;4.82;;;;;;;;;;5072490;28;20035;-67
2022/12/01 07:28:00;;;;;;;7.28;5.47;;;;;;;;;;5072670;28;20029;-67
2022/12/01 07:30:25;;;;;;;6.28;4.93;;;;;;;;;;5071830;28;20029;-67
2022/12/01 07:32:51;;;;;;;7.47;5.30;;;;;;;;;;5072429;28;20372;-68
2022/12/01 07:35:17;;;;;;;7.65;4.68;;;;;;;;;;5072288;28;20538;-67
2022/12/01 07:37:42;;;;;;;6.63;5.05;;;;;;;;;;5072359;28;20047;-68
2022/12/01 07:40:09;;;;;;;9.98;5.57;;;;;;;;;;5072357;28;20056;-68
2022/12/01 07:42:34;;;;;;;7.32;5.20;;;;;;;;;;5072264;28;20381;-67
2022/12/01 07:45:00;;;;;;;6.22;5.03;;;;;;;;;;5072148;28;20032;-67
2022/12/01 07:47:25;;;;;;;8.10;5.20;;;;;;;;;;5072254;28;20112;-68
2022/12/01 07:49:51;;;;;;;7.13;5.10;;;;;;;;;;5072224;28;20024;-67
2022/12/01 07:52:17;;;;;;;6.13;4.82;;;;;;;;;;5072240;28;20024;-67
2022/12/01 07:54:42;;;;;;;6.35;4.80;;;;;;;;;;5072133;28;20480;-67
2022/12/01 07:57:08;;;;;;;6.47;5.10;;;;;;;;;;5072148;28;20108;-66
2022/12/01 07:59:33;;;;;;;6.57;4.97;;;;;;;;;;5072139;28;20063;-66
2022/12/01 08:01:59;;;;;;;6.53;5.20;;;;;;;;;;5069236;28;20032;-67
2022/12/01 08:04:25;;;;;;;6.35;5.20;;;;;;;;;;5067163;28;20167;-67
2022/12/01 08:06:50;;;;;;;7.38;4.93;;;;;;;;;;5067441;28;20504;-67
2022/12/01 08:09:16;;;;;;;8.63;5.43;;;;;;;;;;5049107;28;20024;-67
2022/12/01 08:11:41;;;;;;;6.25;5.00;;;;;;;;;;5064222;28;20043;-66
2022/12/01 08:14:07;;;;;;;6.20;5.10;;;;;;;;;;5062891;28;20384;-67
2022/12/01 08:16:32;;;;;;;5.80;4.65;;;;;;;;;;5050437;28;20025;-67
2022/12/01 08:18:58;;;;;;;6.53;5.07;;;;;;;;;;5070093;28;20056;-66
2022/12/01 08:21:24;;;;;;;7.10;4.65;;;;;;;;;;5070574;28;20024;-65
2022/12/01 08:23:57;;;;;;;12.43;4.90;;;;;;;;;;5068527;28;20036;-66
2022/12/01 08:26:24;;;;;;;6.32;4.97;;;;;;;;;;5068965;28;20476;-66
2022/12/01 08:28:50;;;;;;;6.90;4.68;;;;;;;;;;5070479;28;20048;-66
2022/12/01 08:31:20;;;;;;;7.82;5.47;;;;;;;;;;5070706;28;20379;-65
2022/12/01 08:33:47;;;;;;;5.35;4.38;;;;;;;;;;5071705;28;20353;-65
2022/12/01 08:36:13;;;;;;;6.60;5.13;;;;;;;;;;5071990;28;20040;-66
2022/12/01 08:38:38;;;;;;;7.25;5.07;;;;;;;;;;5071750;28;20400;-65
2022/12/01 08:41:08;;;;;;;7.30;5.38;;;;;;;;;;5071702;28;20043;-66
2022/12/01 08:43:38;;;;;;;5.80;4.72;;;;;;;;;;5075253;28;20071;-66
2022/12/01 08:46:03;;;;;;;;;;;;;;;;;;5075742;28;20119;-66
2022/12/01 08:48:29;;;;;;;7.53;5.35;;;;;;;;;;5073404;28;20011;-66
2022/12/01 08:51:05;;;;;;;6.88;4.95;;;;;;;;;;5073801;28;20028;-66
2022/12/01 08:53:32;;;;;;;6.75;5.25;;;;;;;;;;5073475;28;20036;-66
2022/12/01 08:56:00;;;;;;;8.00;5.18;;;;;;;;;;5073966;28;20029;-66
2022/12/01 08:58:26;;;;;;;6.35;4.95;;;;;;;;;;5073584;28;20024;-66
2022/12/01 09:00:52;;;;;;;6.20;4.88;;;;;;;;;;5055634;28;20063;-65
2022/12/01 09:03:17;;;;;;;6.38;5.35;;;;;;;;;;5073482;28;20064;-66
2022/12/01 09:05:43;;;;;;;6.88;5.30;;;;;;;;;;5073757;28;20060;-65
2022/12/01 09:10:53;;;;;;;7.50;5.40;;;;;;;;;;5073589;28;20038;-64
2022/12/01 09:13:18;;;;;;;7.47;5.07;;;;;;;;;;5072479;28;20029;-67
2022/12/01 09:15:53;;;;;;;7.28;5.20;;;;;;;;;;5072747;28;20028;-66
2022/12/01 09:18:19;;;;;;;9.23;5.38;;;;;;;;;;5073018;28;20634;-66
2022/12/01 09:20:46;;;;;;;7.63;5.18;;;;;;;;;;5071517;28;20115;-66
2022/12/01 09:23:11;;;;;;;6.68;5.18;;;;;;;;;;5054257;28;20546;-67
2022/12/01 09:25:37;;;;;;;7.32;5.45;;;;;;;;;;5072979;28;20040;-67
2022/12/01 09:28:02;;;;;;;7.38;5.00;;;;;;;;;;5071805;28;20033;-66
2022/12/01 09:30:28;;;;;;;6.45;5.18;;;;;;;;;;5072891;28;20023;-65
2022/12/01 09:32:53;;;;;;;6.22;4.82;;;;;;;;;;5070778;28;20396;-65
2022/12/01 09:35:19;;;;;;;7.07;5.05;;;;;;;;;;5071778;28;20207;-66
2022/12/01 09:37:44;;;;;;;8.20;5.72;;;;;;;;;;5072827;28;20036;-66
2022/12/01 09:40:13;;;;;;;6.38;4.88;;;;;;;;;;5073232;28;20051;-65
2022/12/01 09:42:39;;;;;;;6.32;5.00;;;;;;;;;;5070914;28;20024;-65
2022/12/01 09:45:10;;;;;;;8.32;5.32;;;;;;;;;;5052775;28;20032;-65
2022/12/01 09:47:37;;;;;;;8.13;5.40;;;;;;;;;;5072983;28;20021;-65
2022/12/01 09:50:13;;;;;;;6.85;4.95;;;;;;;;;;5072642;28;20035;-67
2022/12/01 09:52:46;;;;;;;6.97;5.45;;;;;;;;;;5072314;28;20063;-65
2022/12/01 09:55:14;;;;;;;6.85;5.00;;;;;;;;;;5071976;28;20028;-64
2022/12/01 09:57:41;;;;;;;7.13;5.20;;;;;;;;;;5070882;28;20028;-64
2022/12/01 10:00:15;;;;;;;6.03;5.05;;;;;;;;;;5054158;28;20032;-64
2022/12/01 10:02:53;;;;;;;7.43;5.03;;;;;;;;;;5052407;28;20036;-64
2022/12/01 10:05:25;;;;;;;7.05;5.40;;;;;;;;;;5052613;28;20029;-65
2022/12/01 10:08:03;;;;;;;7.20;4.70;;;;;;;;;;5052455;28;20040;-65
2022/12/01 10:10:33;;;;;;;6.28;5.10;;;;;;;;;;5052224;28;20800;-64
2022/12/01 10:12:59;;;;;;;6.45;5.20;;;;;;;;;;5065111;28;20033;-65
2022/12/01 10:15:53;;;;;;;6.60;5.40;;;;;;;;;;5070546;28;20753;-65
2022/12/01 10:18:37;;;;;;;7.35;5.32;;;;;;;;;;5050461;28;20864;-66
2022/12/01 10:21:09;;;;;;;6.57;5.10;;;;;;;;;;5051934;28;20048;-64
2022/12/01 10:24:06;;;;;;;7.78;5.10;;;;;;;;;;5052037;28;20103;-65
2022/12/01 10:26:55;;;;;;;7.55;5.32;;;;;;;;;;5051999;28;20071;-65
2022/12/01 10:29:51;;;;;;;7.50;5.33;;;;;;;;;;5050408;28;20111;-66
2022/12/01 10:32:40;;;;;;;5.80;4.88;;;;;;;;;;5050540;28;20039;-65
2022/12/01 10:35:14;;;;;;;8.93;5.32;;;;;;;;;;5045711;28;20045;-67
2022/12/01 10:37:40;;;;;;;6.82;5.15;;;;;;;;;;5051764;28;20110;-66
2022/12/01 10:40:12;;;;;;;7.45;5.25;;;;;;;;;;5051521;28;20032;-65
2022/12/01 10:42:49;;;;;;;6.43;5.28;;;;;;;;;;5051533;28;20033;-65
2022/12/01 10:45:20;;;;;;;6.60;4.95;;;;;;;;;;5049711;28;20431;-64
2022/12/01 10:48:08;;;;;;;7.47;4.90;;;;;;;;;;5051686;28;20052;-64
2022/12/01 10:50:34;;;;;;;7.45;5.30;;;;;;;;;;5051398;28;20071;-64
2022/12/01 10:53:00;;;;;;;6.93;4.90;;;;;;;;;;5050038;28;20029;-64
2022/12/01 10:55:30;;;;;;;6.68;4.93;;;;;;;;;;5051209;28;20043;-65
2022/12/01 10:57:58;;;;;;;7.05;5.00;;;;;;;;;;5051285;28;20040;-65
2022/12/01 11:00:29;;;;;;;7.40;4.90;;;;;;;;;;5049956;28;20388;-64
2022/12/01 11:02:54;;;;;;;6.70;5.43;;;;;;;;;;5051137;28;20048;-65
2022/12/01 11:05:33;;;;;;;8.95;5.10;;;;;;;;;;5049632;28;20107;-64
2022/12/01 11:07:58;;;;;;;6.55;4.85;;;;;;;;;;5050990;28;20032;-64
2022/12/01 11:10:36;;;;;;;7.57;5.03;;;;;;;;;;5051114;28;20021;-64
2022/12/01 11:13:29;;;;;;;6.95;4.93;;;;;;;;;;5049903;28;20063;-64
2022/12/01 11:15:57;;;;;;;6.43;5.22;;;;;;;;;;5051039;28;20040;-65
2022/12/01 11:18:32;;;;;;;6.45;5.22;;;;;;;;;;5062560;28;20559;-66
2022/12/01 11:21:07;;;;;;;10.40;5.95;;;;;;;;;;5071011;28;20115;-65
2022/12/01 11:23:52;;;;;;;5.90;4.95;;;;;;;;;;5070874;28;20477;-65
2022/12/01 11:26:24;;;;;;;7.63;5.32;;;;;;;;;;5053207;28;20342;-64
2022/12/01 11:29:01;;;;;;;6.97;5.03;;;;;;;;;;5070769;28;20067;-66
2022/12/01 11:31:42;;;;;;;6.43;5.10;;;;;;;;;;5070730;28;20021;-65
2022/12/01 11:34:25;;;;;;;6.40;5.05;;;;;;;;;;5070594;28;20031;-65
2022/12/01 11:37:04;;;;;;;7.13;5.07;;;;;;;;;;5070811;28;20025;-64
2022/12/01 11:39:40;;;;;;;7.20;4.78;;;;;;;;;;5070808;28;20025;-66
2022/12/01 11:42:16;;;;;;;6.47;4.78;;;;;;;;;;5069621;28;20032;-64
2022/12/01 11:44:49;;;;;;;6.03;4.80;;;;;;;;;;5070130;28;20028;-65
2022/12/01 11:47:18;;;;;;;6.45;5.13;;;;;;;;;;5069804;28;20028;-65
2022/12/01 11:49:46;;;;;;;7.50;5.35;;;;;;;;;;5069317;28;20029;-64
2022/12/01 11:52:44;;;;;;;7.45;5.53;;;;;;;;;;5070595;28;20025;-63
2022/12/01 11:55:12;;;;;;;6.80;5.03;;;;;;;;;;5070396;28;20493;-64
2022/12/01 11:57:41;;;;;;;6.93;5.75;;;;;;;;;;5070748;28;20030;-63
2022/12/01 12:00:19;;;;;;;7.30;5.70;;;;;;;;;;5070372;28;20100;-63
2022/12/01 12:03:03;;;;;;;6.32;5.03;;;;;;;;;;5070671;28;20028;-63
2022/12/01 12:05:55;;;;;;;6.68;4.95;;;;;;;;;;5052443;28;20111;-64
2022/12/01 12:08:32;;;;;;;7.22;5.68;;;;;;;;;;5070356;28;20035;-66
2022/12/01 12:11:20;;;;;;;7.50;5.45;;;;;;;;;;5070649;28;20051;-66
2022/12/01 12:14:17;;;;;;;6.38;4.88;;;;;;;;;;5052255;28;20035;-65
2022/12/01 12:17:13;;;;;;;6.25;5.28;;;;;;;;;;5071355;28;20397;-66
2022/12/01 12:20:06;;;;;;;6.68;5.10;;;;;;;;;;5074166;28;20093;-66
2022/12/01 12:22:47;;;;;;;7.53;5.30;;;;;;;;;;5074254;28;20105;-65
2022/12/01 12:25:28;;;;;;;6.88;5.35;;;;;;;;;;5071840;28;20087;-66
2022/12/01 12:28:22;;;;;;;6.70;5.32;;;;;;;;;;5036074;28;20036;-66
2022/12/01 12:31:00;;;;;;;6.63;5.22;;;;;;;;;;5054100;28;20669;-66
2022/12/01 12:33:35;;;;;;;6.70;5.55;;;;;;;;;;5054066;28;20021;-66
2022/12/01 12:36:06;;;;;;;7.15;5.70;;;;;;;;;;5053897;28;20036;-63
2022/12/01 12:38:43;;;;;;;7.25;5.32;;;;;;;;;;5053853;28;20516;-66
2022/12/01 12:41:34;;;;;;;7.80;5.50;;;;;;;;;;5053935;28;20726;-64
2022/12/01 12:44:27;;;;;;;6.45;5.10;;;;;;;;;;5053755;28;20440;-66
2022/12/01 12:47:26;;;;;;;6.65;5.18;;;;;;;;;;5062115;28;20024;-64
2022/12/01 12:49:54;;;;;;;7.78;5.82;;;;;;;;;;5053570;28;20044;-64
2022/12/01 12:52:25;;;;;;;6.75;5.00;;;;;;;;;;5072000;28;20128;-66
2022/12/01 12:54:59;;;;;;;6.95;5.20;;;;;;;;;;5073568;28;20040;-64
2022/12/01 12:57:30;;;;;;;9.13;5.55;;;;;;;;;;5073644;28;20024;-66
2022/12/01 13:00:16;;;;;;;6.40;5.57;;;;;;;;;;5073646;28;20017;-66
2022/12/01 13:02:49;;;;;;;8.57;5.60;;;;;;;;;;5072290;28;20029;-65
2022/12/01 13:05:24;;;;;;;7.28;5.22;;;;;;;;;;5073498;28;20507;-66
2022/12/01 13:07:58;;;;;;;7.28;5.43;;;;;;;;;;5073398;28;20056;-66
2022/12/01 13:10:45;;;;;;;7.43;5.30;;;;;;;;;;5072139;28;20036;-66
2022/12/01 13:13:17;;;;;;;7.32;5.50;;;;;;;;;;5073196;28;20503;-67
2022/12/01 13:15:44;;;;;;;7.47;5.40;;;;;;;;;;5073282;28;20032;-66
2022/12/01 13:18:41;;;;;;;7.40;5.45;;;;;;;;;;5072997;28;20053;-66
2022/12/01 13:21:15;;;;;;;10.20;5.72;;;;;;;;;;5073146;28;20476;-66
2022/12/01 13:23:41;;;;;;;7.60;5.47;;;;;;;;;;5055817;28;20028;-66
2022/12/01 13:26:09;;;;;;;7.85;5.68;;;;;;;;;;5055175;28;20020;-68
2022/12/01 13:28:43;;;;;;;6.95;5.30;;;;;;;;;;5071667;28;20123;-66
2022/12/01 13:31:16;;;;;;;8.10;5.85;;;;;;;;;;5072753;28;20033;-66
2022/12/01 13:34:03;;;;;;;7.40;5.43;;;;;;;;;;5072569;28;20025;-67
2022/12/01 13:36:30;;;;;;;6.50;5.32;;;;;;;;;;5073075;28;20031;-66
2022/12/01 13:39:01;;;;;;;7.72;5.72;;;;;;;;;;5072741;28;20472;-66
2022/12/01 13:41:38;;;;;;;7.80;5.78;;;;;;;;;;5071180;28;20020;-67
2022/12/01 13:44:25;;;;;;;7.68;5.20;;;;;;;;;;5071871;28;20025;-67
2022/12/01 13:47:24;;;;;;;7.97;5.40;;;;;;;;;;5072743;28;20389;-67
2022/12/01 13:49:51;;;;;;;6.75;5.38;;;;;;;;;;5058103;28;20036;-67
2022/12/01 13:52:20;;;;;;;7.90;4.95;;;;;;;;;;5072578;28;20063;-67
2022/12/01 13:55:00;;;;;;;7.20;5.88;;;;;;;;;;5072290;28;20564;-67
2022/12/01 13:57:29;;;;;;;7.57;5.53;;;;;;;;;;5072501;28;20444;-67
2022/12/01 13:59:57;;;;;;;6.95;5.40;;;;;;;;;;5072550;28;20108;-68
2022/12/01 14:02:25;;;;;;;7.68;5.78;;;;;;;;;;5072235;28;20119;-67
2022/12/01 14:04:50;;;;;;;10.82;6.32;;;;;;;;;;5072616;28;20474;-68
2022/12/01 14:07:19;;;;;;;10.55;6.35;;;;;;;;;;5054284;28;20056;-67
2022/12/01 14:09:49;;;;;;;10.15;6.60;;;;;;;;;;5070756;28;20051;-67
2022/12/01 14:12:20;;;;;;;15.05;7.40;;;;;;;;;;5071230;28;20016;-67
2022/12/01 14:15:21;;;;;;;13.27;7.30;;;;;;;;;;5072022;28;20060;-68
2022/12/01 14:18:16;;;;;;;23.75;10.88;;;;;;;;;;5038995;28;20127;-67
2022/12/01 14:20:45;;;;;;;18.58;8.60;;;;;;;;;;5070115;28;20045;-68
2022/12/01 14:23:13;;;;;;;15.13;8.02;;;;;;;;;;5071934;28;20480;-68
2022/12/01 14:25:40;;;;;;;18.17;8.57;;;;;;;;;;5071982;28;20460;-69
2022/12/01 14:28:14;;;;;;;15.23;8.13;;;;;;;;;;5071922;28;20486;-67
2022/12/01 14:30:44;;;;;;;14.77;7.82;;;;;;;;;;5071775;28;20032;-68
2022/12/01 14:33:46;;;;;;;14.55;7.90;;;;;;;;;;5071720;28;20107;-68
2022/12/01 14:36:35;;;;;;;20.83;9.02;;;;;;;;;;5053686;28;20040;-67
2022/12/01 14:39:09;;;;;;;19.80;10.05;;;;;;;;;;5071413;28;20025;-68
2022/12/01 14:41:48;;;;;;;19.15;8.93;;;;;;;;;;5053710;28;20051;-67
2022/12/01 14:44:23;;;;;;;17.45;8.70;;;;;;;;;;5071480;28;20036;-68
2022/12/01 14:47:05;;;;;;;16.33;8.70;;;;;;;;;;5071468;28;20021;-68
2022/12/01 14:49:36;;;;;;;18.83;8.68;;;;;;;;;;5071534;28;20033;-67
2022/12/01 14:52:13;;;;;;;19.25;9.75;;;;;;;;;;5053487;28;20028;-67
2022/12/01 14:54:45;;;;;;;20.92;10.45;;;;;;;;;;5071387;28;20036;-67
2022/12/01 14:57:14;;;;;;;18.02;9.27;;;;;;;;;;5071401;28;20388;-68
2022/12/01 14:59:40;;;;;;;18.52;9.68;;;;;;;;;;5069376;28;20498;-67
2022/12/01 15:02:10;;;;;;;19.30;9.48;;;;;;;;;;5071177;28;20036;-68
2022/12/01 15:05:11;;;;;;;20.52;9.88;;;;;;;;;;5071475;28;20082;-68
2022/12/01 15:07:43;;;;;;;20.45;10.00;;;;;;;;;;5071089;28;20043;-66
2022/12/01 15:10:34;;;;;;;20.20;10.48;;;;;;;;;;5071190;28;20111;-68
2022/12/01 15:13:18;;;;;;;20.38;10.27;;;;;;;;;;5064277;28;20047;-68
2022/12/01 15:15:54;;;;;;;27.48;10.85;;;;;;;;;;5071046;28;20388;-68